createdAt,value
2019-03-16T00:03:33.693Z,30.43
2019-03-16T00:08:37.259Z,30.93
2019-03-16T00:13:40.795Z,31.41
2019-03-16T00:18:44.327Z,31.43
2019-03-16T00:23:47.894Z,31.17
2019-03-16T00:28:51.409Z,30.76
2019-03-16T00:33:54.979Z,30.11
2019-03-16T00:38:58.607Z,29.70
2019-03-16T00:44:02.209Z,29.31
2019-03-16T00:49:05.771Z,28.79
2019-03-16T00:54:09.347Z,28.80
2019-03-16T00:59:12.904Z,29.08
2019-03-16T01:04:16.477Z,28.56
2019-03-16T01:09:20.062Z,29.70
2019-03-16T01:14:23.667Z,30.27
2019-03-16T01:19:27.195Z,30.64
2019-03-16T01:24:30.783Z,31.56
2019-03-16T01:29:34.321Z,32.13
2019-03-16T01:34:37.874Z,31.88
2019-03-16T01:39:41.416Z,32.35
2019-03-16T01:44:44.953Z,33.47
2019-03-16T01:49:48.482Z,33.27
2019-03-16T01:54:52.061Z,32.77
2019-03-16T01:59:55.634Z,30.83
2019-03-16T02:04:59.171Z,30.39
2019-03-16T02:10:02.705Z,30.15
2019-03-16T02:15:08.505Z,29.35
2019-03-16T02:20:12.070Z,29.34
2019-03-16T02:25:15.605Z,29.27
2019-03-16T02:30:19.196Z,29.56
2019-03-16T02:35:22.713Z,29.63
2019-03-16T02:40:26.254Z,30.53
2019-03-16T02:45:29.825Z,30.73
2019-03-16T02:50:33.365Z,30.99
2019-03-16T02:55:36.946Z,31.80
2019-03-16T03:00:40.483Z,32.46
2019-03-16T03:05:44.017Z,32.95
2019-03-16T03:10:47.615Z,34.13
2019-03-16T03:15:51.160Z,34.12
2019-03-16T03:20:54.698Z,35.20
2019-03-16T03:25:58.236Z,34.34
2019-03-16T03:31:01.808Z,35.01
2019-03-16T03:36:05.381Z,33.04
2019-03-16T03:41:08.962Z,31.64
2019-03-16T03:46:12.484Z,30.60
2019-03-16T03:51:16.021Z,30.04
2019-03-16T03:56:19.588Z,29.42
2019-03-16T04:01:23.132Z,29.44
2019-03-16T04:06:26.744Z,29.33
2019-03-16T04:11:30.268Z,29.54
2019-03-16T04:16:33.809Z,30.15
2019-03-16T04:21:37.395Z,30.57
2019-03-16T04:26:40.927Z,31.16
2019-03-16T04:31:44.487Z,32.38
2019-03-16T04:36:48.023Z,32.74
2019-03-16T04:41:51.558Z,33.33
2019-03-16T04:46:55.123Z,34.47
2019-03-16T04:51:58.785Z,35.09
2019-03-16T04:57:02.349Z,35.61
2019-03-16T05:02:05.913Z,35.86
2019-03-16T05:07:09.481Z,35.03
2019-03-16T05:12:13.045Z,36.19
2019-03-16T05:17:16.604Z,34.58
2019-03-16T05:22:20.147Z,32.38
2019-03-16T05:27:23.686Z,31.72
2019-03-16T05:32:27.342Z,31.33
2019-03-16T05:37:30.888Z,31.62
2019-03-16T05:42:34.424Z,30.81
2019-03-16T05:47:37.959Z,29.95
2019-03-16T05:52:41.524Z,29.72
2019-03-16T05:57:45.083Z,29.71
2019-03-16T06:02:48.626Z,29.99
2019-03-16T06:07:52.191Z,30.94
2019-03-16T06:12:55.761Z,32.38
2019-03-16T06:17:59.305Z,33.60
2019-03-16T06:23:02.866Z,34.12
2019-03-16T06:28:06.403Z,34.40
2019-03-16T06:33:09.979Z,33.92
2019-03-16T06:38:13.524Z,35.07
2019-03-16T06:43:17.072Z,35.41
2019-03-16T06:48:20.741Z,35.25
2019-03-16T06:53:24.432Z,34.99
2019-03-16T06:58:28.003Z,33.80
2019-03-16T07:03:31.553Z,35.84
2019-03-16T07:08:35.117Z,35.30
2019-03-16T07:13:38.688Z,33.45
2019-03-16T07:18:42.273Z,33.99
2019-03-16T07:23:45.811Z,33.94
2019-03-16T07:28:49.482Z,36.59
2019-03-16T07:33:52.999Z,35.45
2019-03-16T07:38:56.533Z,34.74
2019-03-16T07:44:00.072Z,36.30
2019-03-16T07:49:03.723Z,33.23
2019-03-16T07:54:07.239Z,35.53
2019-03-16T07:59:10.811Z,36.71
2019-03-16T08:04:14.339Z,35.60
2019-03-16T08:09:17.909Z,34.56
2019-03-16T08:14:21.655Z,33.75
2019-03-16T08:19:25.285Z,33.71
2019-03-16T08:24:29.029Z,32.87
2019-03-16T08:29:32.559Z,32.05
2019-03-16T08:34:36.249Z,33.38
2019-03-16T08:39:40.773Z,34.10
2019-03-16T08:44:44.311Z,34.61
2019-03-16T08:49:47.883Z,33.83
2019-03-16T08:54:51.469Z,33.88
2019-03-16T08:59:55.219Z,34.13
2019-03-16T09:04:58.760Z,33.53
2019-03-16T09:10:02.323Z,33.53
2019-03-16T09:15:09.146Z,33.80
2019-03-16T09:20:12.720Z,33.55
2019-03-16T09:25:16.400Z,33.83
2019-03-16T09:30:19.920Z,34.16
2019-03-16T09:35:23.599Z,34.46
2019-03-16T09:40:27.129Z,34.07
2019-03-16T09:45:30.689Z,34.95
2019-03-16T09:50:34.249Z,35.56
2019-03-16T09:55:37.799Z,35.45
2019-03-16T10:00:41.362Z,35.44
2019-03-16T10:05:44.908Z,35.70
2019-03-16T10:10:48.445Z,35.63
2019-03-16T10:15:52.008Z,34.68
2019-03-16T10:20:55.571Z,35.84
2019-03-16T10:25:59.138Z,34.61
2019-03-16T10:31:02.709Z,34.87
2019-03-16T10:36:06.267Z,34.11
2019-03-16T10:41:09.848Z,35.15
2019-03-16T10:46:13.394Z,34.13
2019-03-16T10:51:16.955Z,33.97
2019-03-16T10:56:20.501Z,34.27
2019-03-16T11:01:24.040Z,35.81
2019-03-16T11:06:27.604Z,36.09
2019-03-16T11:11:31.201Z,35.74
2019-03-16T11:16:34.744Z,35.56
2019-03-16T11:21:38.327Z,36.04
2019-03-16T11:26:41.917Z,35.97
2019-03-16T11:31:45.857Z,35.54
2019-03-16T11:36:49.425Z,35.46
2019-03-16T11:41:53.013Z,34.20
2019-03-16T11:46:56.531Z,35.36
2019-03-16T11:52:00.090Z,36.21
2019-03-16T11:57:03.663Z,36.50
2019-03-16T12:02:07.222Z,36.60
2019-03-16T12:07:10.763Z,35.90
2019-03-16T12:12:14.441Z,33.35
2019-03-16T12:17:17.965Z,36.15
2019-03-16T12:22:21.699Z,33.22
2019-03-16T12:27:25.215Z,37.48
2019-03-16T12:32:28.776Z,37.03
2019-03-16T12:37:32.340Z,37.57
2019-03-16T12:42:35.971Z,37.28
2019-03-16T12:47:39.520Z,36.93
2019-03-16T12:52:43.094Z,36.45
2019-03-16T12:57:48.006Z,35.80
2019-03-16T13:02:51.902Z,35.11
2019-03-16T13:07:55.424Z,34.33
2019-03-16T13:12:59.107Z,34.46
2019-03-16T13:18:02.634Z,34.30
2019-03-16T13:23:06.210Z,35.06
2019-03-16T13:28:09.738Z,35.23
2019-03-16T13:33:13.270Z,35.61
2019-03-16T13:38:16.832Z,34.02
2019-03-16T13:43:20.379Z,35.86
2019-03-16T13:48:23.978Z,35.72
2019-03-16T13:53:27.512Z,36.31
2019-03-16T13:58:31.348Z,36.63
2019-03-16T14:03:34.883Z,36.09
2019-03-16T14:08:38.744Z,37.14
2019-03-16T14:13:42.300Z,35.82
2019-03-16T14:18:46.148Z,35.25
2019-03-16T14:23:49.688Z,36.00
2019-03-16T14:28:56.221Z,38.71
2019-03-16T14:33:59.796Z,36.08
2019-03-16T14:39:04.957Z,35.23
2019-03-16T14:44:08.486Z,36.72
2019-03-16T14:49:12.019Z,37.80
2019-03-16T14:54:15.568Z,37.64
2019-03-16T14:59:19.155Z,37.15
2019-03-16T15:04:22.706Z,36.19
2019-03-16T15:09:26.637Z,35.03
2019-03-16T15:14:30.171Z,35.02
2019-03-16T15:19:33.764Z,34.87
2019-03-16T15:24:37.326Z,35.14
2019-03-16T15:29:40.869Z,36.07
2019-03-16T15:34:44.402Z,35.97
2019-03-16T15:39:47.943Z,36.72
2019-03-16T15:44:51.512Z,37.50
2019-03-16T15:49:57.399Z,38.16
2019-03-16T15:55:00.475Z,38.61
2019-03-16T16:00:10.738Z,39.05
2019-03-16T16:05:14.332Z,38.52
2019-03-16T16:10:19.126Z,37.44
2019-03-16T16:15:22.655Z,39.41
2019-03-16T16:20:26.265Z,38.60
2019-03-16T16:25:29.793Z,38.02
2019-03-16T16:30:33.528Z,39.30
2019-03-16T16:35:37.052Z,39.39
2019-03-16T16:40:40.615Z,39.69
2019-03-16T16:45:46.660Z,40.22
2019-03-16T16:50:49.461Z,38.86
2019-03-16T16:55:53.006Z,39.78
2019-03-16T17:00:56.593Z,40.47
2019-03-16T17:06:00.137Z,41.06
2019-03-16T17:11:03.683Z,40.54
2019-03-16T17:16:07.299Z,40.58
2019-03-16T17:21:10.835Z,40.03
2019-03-16T17:26:14.372Z,41.17
2019-03-16T17:31:17.931Z,41.45
2019-03-16T17:36:22.376Z,41.44
2019-03-16T17:41:26.003Z,41.15
2019-03-16T17:46:29.562Z,40.84
2019-03-16T17:51:33.125Z,40.25
2019-03-16T17:56:36.661Z,41.27
2019-03-16T18:01:40.205Z,40.61
2019-03-16T18:06:43.783Z,40.34
2019-03-16T18:11:47.322Z,39.56
2019-03-16T18:16:50.881Z,40.99
2019-03-16T18:21:54.535Z,41.56
2019-03-16T18:26:58.075Z,39.55
2019-03-16T18:32:07.758Z,38.21
2019-03-16T18:37:06.896Z,37.35
2019-03-16T18:42:10.459Z,37.55
2019-03-16T18:47:14.021Z,38.15
2019-03-16T18:52:17.591Z,38.49
2019-03-16T18:57:21.152Z,39.07
2019-03-16T19:02:24.727Z,39.67
2019-03-16T19:07:28.253Z,40.63
2019-03-16T19:12:31.925Z,40.94
2019-03-16T19:17:35.490Z,41.22
2019-03-16T19:22:39.016Z,41.26
2019-03-16T19:27:42.578Z,42.72
2019-03-16T19:32:46.156Z,50.73
2019-03-16T19:37:49.735Z,58.89
2019-03-16T19:42:53.362Z,58.87
2019-03-16T19:47:57.139Z,41.28
2019-03-16T19:53:00.681Z,42.66
2019-03-16T19:58:04.866Z,43.87
2019-03-16T20:03:08.428Z,44.63
2019-03-16T20:08:11.990Z,41.95
2019-03-16T20:13:15.897Z,44.94
2019-03-16T20:18:19.431Z,41.05
2019-03-16T20:23:22.976Z,42.57
2019-03-16T20:28:26.550Z,41.52
2019-03-16T20:33:30.293Z,41.13
2019-03-16T20:38:33.819Z,43.01
2019-03-16T20:43:37.395Z,42.43
2019-03-16T20:48:40.952Z,45.11
2019-03-16T20:53:44.497Z,42.04
2019-03-16T20:58:48.093Z,41.80
2019-03-16T21:03:51.700Z,41.59
2019-03-16T21:09:03.039Z,43.28
2019-03-16T21:19:03.116Z,42.62
2019-03-16T21:24:07.524Z,41.92
2019-03-16T21:29:11.140Z,42.99
2019-03-16T21:34:14.713Z,41.28
2019-03-16T21:39:18.272Z,43.09
2019-03-16T21:44:21.862Z,42.85
2019-03-16T21:49:25.461Z,42.25
2019-03-16T21:54:29.181Z,43.25
2019-03-16T21:59:32.730Z,42.96
2019-03-16T22:04:36.294Z,43.00
2019-03-16T22:09:39.846Z,42.08
2019-03-16T22:14:43.530Z,41.81
2019-03-16T22:19:47.082Z,43.09
2019-03-16T22:24:50.656Z,43.44
2019-03-16T22:29:54.208Z,40.59
2019-03-16T22:34:58.023Z,37.65
2019-03-16T22:40:02.135Z,35.99
2019-03-16T22:45:07.981Z,36.21
2019-03-16T22:50:16.915Z,37.06
2019-03-16T22:55:20.504Z,36.28
2019-03-16T23:00:37.164Z,36.67
2019-03-16T23:05:40.258Z,36.81
2019-03-16T23:10:43.807Z,36.84
2019-03-16T23:15:47.369Z,37.19
2019-03-16T23:20:50.959Z,38.08
2019-03-16T23:25:54.489Z,38.87
2019-03-16T23:30:58.019Z,39.73
2019-03-16T23:36:01.588Z,39.73
2019-03-16T23:41:05.186Z,41.57
2019-03-16T23:46:08.782Z,42.05
2019-03-16T23:51:12.300Z,41.62
2019-03-16T23:56:15.872Z,40.81
